Aviation Digital Data Service (ADDS)

Output produced by METARs form (1718 UTC 16 June 2019)
found at http://www.aviationweather.gov/metar/data/
 
METAR text: FBSK 161700Z 10003KT CAVOK 15/M01 Q1027 NOSIG
Conditions at: FBSK (SIR SERETSE KHAM, BW) observed 1700 UTC 16 June 2019
Temperature: 15.0°C (59°F)
Dewpoint: -1.0°C (30°F) [RH = 33%]
Pressure (altimeter): 30.32 inches Hg (1027.0 mb)
Winds: from the E (100 degrees) at 3 MPH (3 knots; 1.5 m/s)
Visibility: 6 or more miles (10+ km)
Ceiling: ceiling and visibility are OK
Clouds: unknown
Weather: no significant weather observed at this time

METAR text: FBSK 161600Z 09004KT CAVOK 18/M01 Q1026 NOSIG
Conditions at: FBSK (SIR SERETSE KHAM, BW) observed 1600 UTC 16 June 2019
Temperature: 18.0°C (64°F)
Dewpoint: -1.0°C (30°F) [RH = 28%]
Pressure (altimeter): 30.30 inches Hg (1026.0 mb)
Winds: from the E (90 degrees) at 5 MPH (4 knots; 2.1 m/s)
Visibility: 6 or more miles (10+ km)
Ceiling: ceiling and visibility are OK
Clouds: unknown
Weather: no significant weather observed at this time

METAR text: FBSK 161500Z 05003KT 340V110 CAVOK 21/M01 Q1026 NOSIG
Conditions at: FBSK (SIR SERETSE KHAM, BW) observed 1500 UTC 16 June 2019
Temperature: 21.0°C (70°F)
Dewpoint: -1.0°C (30°F) [RH = 23%]
Pressure (altimeter): 30.30 inches Hg (1026.0 mb)
Winds: from the NE (50 degrees) at 3 MPH (3 knots; 1.5 m/s)
Visibility: 6 or more miles (10+ km)
Ceiling: ceiling and visibility are OK
Clouds: unknown
Weather: no significant weather observed at this time

METAR text: FBSK 161400Z 06007KT 040V100 CAVOK 21/M00 Q1026 NOSIG
Conditions at: FBSK (SIR SERETSE KHAM, BW) observed 1400 UTC 16 June 2019
Temperature: 21.0°C (70°F)
Dewpoint: 0.0°C (32°F) [RH = 25%]
Pressure (altimeter): 30.30 inches Hg (1026.0 mb)
Winds: from the ENE (60 degrees) at 8 MPH (7 knots; 3.6 m/s)
Visibility: 6 or more miles (10+ km)
Ceiling: ceiling and visibility are OK
Clouds: unknown
Weather: no significant weather observed at this time

METAR text: FBSK 161300Z 03005KT 330V100 CAVOK 21/00 Q1026 NOSIG
Conditions at: FBSK (SIR SERETSE KHAM, BW) observed 1300 UTC 16 June 2019
Temperature: 21.0°C (70°F)
Dewpoint: 0.0°C (32°F) [RH = 25%]
Pressure (altimeter): 30.30 inches Hg (1026.0 mb)
Winds: from the NNE (30 degrees) at 6 MPH (5 knots; 2.6 m/s)
Visibility: 6 or more miles (10+ km)
Ceiling: ceiling and visibility are OK
Clouds: unknown
Weather: no significant weather observed at this time

METAR text: FBSK 161200Z VRB03KT CAVOK 21/00 Q1027 NOSIG
Conditions at: FBSK (SIR SERETSE KHAM, BW) observed 1200 UTC 16 June 2019
Temperature: 21.0°C (70°F)
Dewpoint: 0.0°C (32°F) [RH = 25%]
Pressure (altimeter): 30.32 inches Hg (1027.0 mb)
Winds: variable direction winds at 3 MPH (3 knots; 1.5 m/s)
Visibility: 6 or more miles (10+ km)
Ceiling: ceiling and visibility are OK
Clouds: unknown
Weather: no significant weather observed at this time

METAR text: FBSK 161100Z 03005KT 310V110 CAVOK 20/01 Q1028 NOSIG
Conditions at: FBSK (SIR SERETSE KHAM, BW) observed 1100 UTC 16 June 2019
Temperature: 20.0°C (68°F)
Dewpoint: 1.0°C (34°F) [RH = 28%]
Pressure (altimeter): 30.35 inches Hg (1028.0 mb)
Winds: from the NNE (30 degrees) at 6 MPH (5 knots; 2.6 m/s)
Visibility: 6 or more miles (10+ km)
Ceiling: ceiling and visibility are OK
Clouds: unknown
Weather: no significant weather observed at this time

METAR text: FBSK 161000Z 05004KT 330V100 CAVOK 19/02 Q1029 NOSIG
Conditions at: FBSK (SIR SERETSE KHAM, BW) observed 1000 UTC 16 June 2019
Temperature: 19.0°C (66°F)
Dewpoint: 2.0°C (36°F) [RH = 32%]
Pressure (altimeter): 30.38 inches Hg (1029.0 mb)
Winds: from the NE (50 degrees) at 5 MPH (4 knots; 2.1 m/s)
Visibility: 6 or more miles (10+ km)
Ceiling: ceiling and visibility are OK
Clouds: unknown
Weather: no significant weather observed at this time

METAR text: FBSK 160900Z VRB02KT CAVOK 17/03 Q1030 NOSIG
Conditions at: FBSK (SIR SERETSE KHAM, BW) observed 0900 UTC 16 June 2019
Temperature: 17.0°C (63°F)
Dewpoint: 3.0°C (37°F) [RH = 39%]
Pressure (altimeter): 30.41 inches Hg (1030.0 mb)
Winds: variable direction winds at 2 MPH (2 knots; 1.0 m/s)
Visibility: 6 or more miles (10+ km)
Ceiling: ceiling and visibility are OK
Clouds: unknown
Weather: no significant weather observed at this time

METAR text: FBSK 160800Z VRB01KT CAVOK 14/03 Q1030 NOSIG
Conditions at: FBSK (SIR SERETSE KHAM, BW) observed 0800 UTC 16 June 2019
Temperature: 14.0°C (57°F)
Dewpoint: 3.0°C (37°F) [RH = 47%]
Pressure (altimeter): 30.41 inches Hg (1030.0 mb)
Winds: variable direction winds at 1 MPH (1 knots; 0.5 m/s)
Visibility: 6 or more miles (10+ km)
Ceiling: ceiling and visibility are OK
Clouds: unknown
Weather: no significant weather observed at this time

METAR text: FBSK 160700Z VRB02KT CAVOK 10/02 Q1030 NOSIG
Conditions at: FBSK (SIR SERETSE KHAM, BW) observed 0700 UTC 16 June 2019
Temperature: 10.0°C (50°F)
Dewpoint: 2.0°C (36°F) [RH = 57%]
Pressure (altimeter): 30.41 inches Hg (1030.0 mb)
Winds: variable direction winds at 2 MPH (2 knots; 1.0 m/s)
Visibility: 6 or more miles (10+ km)
Ceiling: ceiling and visibility are OK
Clouds: unknown
Weather: no significant weather observed at this time

METAR text: FBSK 160600Z VRB02KT CAVOK 05/01 Q1029 NOSIG
Conditions at: FBSK (SIR SERETSE KHAM, BW) observed 0600 UTC 16 June 2019
Temperature: 5.0°C (41°F)
Dewpoint: 1.0°C (34°F) [RH = 75%]
Pressure (altimeter): 30.38 inches Hg (1029.0 mb)
Winds: variable direction winds at 2 MPH (2 knots; 1.0 m/s)
Visibility: 6 or more miles (10+ km)
Ceiling: ceiling and visibility are OK
Clouds: unknown
Weather: no significant weather observed at this time

METAR text: FBSK 160500Z 24003KT CAVOK 02/M01 Q1028 NOSIG
Conditions at: FBSK (SIR SERETSE KHAM, BW) observed 0500 UTC 16 June 2019
Temperature: 2.0°C (36°F)
Dewpoint: -1.0°C (30°F) [RH = 80%]
Pressure (altimeter): 30.35 inches Hg (1028.0 mb)
Winds: from the WSW (240 degrees) at 3 MPH (3 knots; 1.5 m/s)
Visibility: 6 or more miles (10+ km)
Ceiling: ceiling and visibility are OK
Clouds: unknown
Weather: no significant weather observed at this time

METAR text: FBSK 160400Z 24003KT CAVOK 04/00 Q1028 NOSIG
Conditions at: FBSK (SIR SERETSE KHAM, BW) observed 0400 UTC 16 June 2019
Temperature: 4.0°C (39°F)
Dewpoint: 0.0°C (32°F) [RH = 75%]
Pressure (altimeter): 30.35 inches Hg (1028.0 mb)
Winds: from the WSW (240 degrees) at 3 MPH (3 knots; 1.5 m/s)
Visibility: 6 or more miles (10+ km)
Ceiling: ceiling and visibility are OK
Clouds: unknown
Weather: no significant weather observed at this time

METAR text: FBSK 160300Z 24004KT CAVOK 04/01 Q1027 NOSIG
Conditions at: FBSK (SIR SERETSE KHAM, BW) observed 0300 UTC 16 June 2019
Temperature: 4.0°C (39°F)
Dewpoint: 1.0°C (34°F) [RH = 81%]
Pressure (altimeter): 30.32 inches Hg (1027.0 mb)
Winds: from the WSW (240 degrees) at 5 MPH (4 knots; 2.1 m/s)
Visibility: 6 or more miles (10+ km)
Ceiling: ceiling and visibility are OK
Clouds: unknown
Weather: no significant weather observed at this time

METAR text: FBSK 160200Z 29003KT CAVOK 04/00 Q1028 NOSIG
Conditions at: FBSK (SIR SERETSE KHAM, BW) observed 0200 UTC 16 June 2019
Temperature: 4.0°C (39°F)
Dewpoint: 0.0°C (32°F) [RH = 75%]
Pressure (altimeter): 30.35 inches Hg (1028.0 mb)
Winds: from the WNW (290 degrees) at 3 MPH (3 knots; 1.5 m/s)
Visibility: 6 or more miles (10+ km)
Ceiling: ceiling and visibility are OK
Clouds: unknown
Weather: no significant weather observed at this time

METAR text: FBSK 160100Z VRB02KT CAVOK 04/00 Q1028 NOSIG
Conditions at: FBSK (SIR SERETSE KHAM, BW) observed 0100 UTC 16 June 2019
Temperature: 4.0°C (39°F)
Dewpoint: 0.0°C (32°F) [RH = 75%]
Pressure (altimeter): 30.35 inches Hg (1028.0 mb)
Winds: variable direction winds at 2 MPH (2 knots; 1.0 m/s)
Visibility: 6 or more miles (10+ km)
Ceiling: ceiling and visibility are OK
Clouds: unknown
Weather: no significant weather observed at this time

METAR text: FBSK 160000Z 26002KT CAVOK 05/01 Q1028 NOSIG
Conditions at: FBSK (SIR SERETSE KHAM, BW) observed 0000 UTC 16 June 2019
Temperature: 5.0°C (41°F)
Dewpoint: 1.0°C (34°F) [RH = 75%]
Pressure (altimeter): 30.35 inches Hg (1028.0 mb)
Winds: from the W (260 degrees) at 2 MPH (2 knots; 1.0 m/s)
Visibility: 6 or more miles (10+ km)
Ceiling: ceiling and visibility are OK
Clouds: unknown
Weather: no significant weather observed at this time

METAR text: FBSK 152300Z VRB01KT CAVOK 07/01 Q1028 NOSIG
Conditions at: FBSK (SIR SERETSE KHAM, BW) observed 2300 UTC 15 June 2019
Temperature: 7.0°C (45°F)
Dewpoint: 1.0°C (34°F) [RH = 66%]
Pressure (altimeter): 30.35 inches Hg (1028.0 mb)
Winds: variable direction winds at 1 MPH (1 knots; 0.5 m/s)
Visibility: 6 or more miles (10+ km)
Ceiling: ceiling and visibility are OK
Clouds: unknown
Weather: no significant weather observed at this time

METAR text: FBSK 152200Z 32006KT CAVOK 11/02 Q1028 NOSIG
Conditions at: FBSK (SIR SERETSE KHAM, BW) observed 2200 UTC 15 June 2019
Temperature: 11.0°C (52°F)
Dewpoint: 2.0°C (36°F) [RH = 54%]
Pressure (altimeter): 30.35 inches Hg (1028.0 mb)
Winds: from the NW (320 degrees) at 7 MPH (6 knots; 3.1 m/s)
Visibility: 6 or more miles (10+ km)
Ceiling: ceiling and visibility are OK
Clouds: unknown
Weather: no significant weather observed at this time

METAR text: FBSK 152100Z 23003KT CAVOK 09/02 Q1029 NOSIG
Conditions at: FBSK (SIR SERETSE KHAM, BW) observed 2100 UTC 15 June 2019
Temperature: 9.0°C (48°F)
Dewpoint: 2.0°C (36°F) [RH = 61%]
Pressure (altimeter): 30.38 inches Hg (1029.0 mb)
Winds: from the SW (230 degrees) at 3 MPH (3 knots; 1.5 m/s)
Visibility: 6 or more miles (10+ km)
Ceiling: ceiling and visibility are OK
Clouds: unknown
Weather: no significant weather observed at this time

METAR text: FBSK 152000Z 24004KT CAVOK 10/02 Q1029 NOSIG
Conditions at: FBSK (SIR SERETSE KHAM, BW) observed 2000 UTC 15 June 2019
Temperature: 10.0°C (50°F)
Dewpoint: 2.0°C (36°F) [RH = 57%]
Pressure (altimeter): 30.38 inches Hg (1029.0 mb)
Winds: from the WSW (240 degrees) at 5 MPH (4 knots; 2.1 m/s)
Visibility: 6 or more miles (10+ km)
Ceiling: ceiling and visibility are OK
Clouds: unknown
Weather: no significant weather observed at this time

METAR text: FBSK 151900Z 27002KT CAVOK 09/01 Q1029 NOSIG
Conditions at: FBSK (SIR SERETSE KHAM, BW) observed 1900 UTC 15 June 2019
Temperature: 9.0°C (48°F)
Dewpoint: 1.0°C (34°F) [RH = 57%]
Pressure (altimeter): 30.38 inches Hg (1029.0 mb)
Winds: from the W (270 degrees) at 2 MPH (2 knots; 1.0 m/s)
Visibility: 6 or more miles (10+ km)
Ceiling: ceiling and visibility are OK
Clouds: unknown
Weather: no significant weather observed at this time

METAR text: FBSK 151800Z 34001KT CAVOK 12/02 Q1028 NOSIG
Conditions at: FBSK (SIR SERETSE KHAM, BW) observed 1800 UTC 15 June 2019
Temperature: 12.0°C (54°F)
Dewpoint: 2.0°C (36°F) [RH = 50%]
Pressure (altimeter): 30.35 inches Hg (1028.0 mb)
Winds: from the NNW (340 degrees) at 1 MPH (1 knots; 0.5 m/s)
Visibility: 6 or more miles (10+ km)
Ceiling: ceiling and visibility are OK
Clouds: unknown
Weather: no significant weather observed at this time

METAR text: FBSK 151700Z 02003KT CAVOK 15/02 Q1028 NOSIG
Conditions at: FBSK (SIR SERETSE KHAM, BW) observed 1700 UTC 15 June 2019
Temperature: 15.0°C (59°F)
Dewpoint: 2.0°C (36°F) [RH = 41%]
Pressure (altimeter): 30.35 inches Hg (1028.0 mb)
Winds: from the NNE (20 degrees) at 3 MPH (3 knots; 1.5 m/s)
Visibility: 6 or more miles (10+ km)
Ceiling: ceiling and visibility are OK
Clouds: unknown
Weather: no significant weather observed at this time

METAR text: FBSK 151600Z 03003KT CAVOK 16/02 Q1027 NOSIG
Conditions at: FBSK (SIR SERETSE KHAM, BW) observed 1600 UTC 15 June 2019
Temperature: 16.0°C (61°F)
Dewpoint: 2.0°C (36°F) [RH = 39%]
Pressure (altimeter): 30.32 inches Hg (1027.0 mb)
Winds: from the NNE (30 degrees) at 3 MPH (3 knots; 1.5 m/s)
Visibility: 6 or more miles (10+ km)
Ceiling: ceiling and visibility are OK
Clouds: unknown
Weather: no significant weather observed at this time

METAR text: FBSK 151500Z 09003KT 060V150 CAVOK 19/02 Q1027 NOSIG
Conditions at: FBSK (SIR SERETSE KHAM, BW) observed 1500 UTC 15 June 2019
Temperature: 19.0°C (66°F)
Dewpoint: 2.0°C (36°F) [RH = 32%]
Pressure (altimeter): 30.32 inches Hg (1027.0 mb)
Winds: from the E (90 degrees) at 3 MPH (3 knots; 1.5 m/s)
Visibility: 6 or more miles (10+ km)
Ceiling: ceiling and visibility are OK
Clouds: unknown
Weather: no significant weather observed at this time

METAR text: FBSK 151400Z 36004KT 320V050 CAVOK 20/02 Q1027 NOSIG
Conditions at: FBSK (SIR SERETSE KHAM, BW) observed 1400 UTC 15 June 2019
Temperature: 20.0°C (68°F)
Dewpoint: 2.0°C (36°F) [RH = 30%]
Pressure (altimeter): 30.32 inches Hg (1027.0 mb)
Winds: from the N (360 degrees) at 5 MPH (4 knots; 2.1 m/s)
Visibility: 6 or more miles (10+ km)
Ceiling: ceiling and visibility are OK
Clouds: unknown
Weather: no significant weather observed at this time

METAR text: FBSK 151300Z 04005KT 330V080 CAVOK 19/02 Q1028 NOSIG
Conditions at: FBSK (SIR SERETSE KHAM, BW) observed 1300 UTC 15 June 2019
Temperature: 19.0°C (66°F)
Dewpoint: 2.0°C (36°F) [RH = 32%]
Pressure (altimeter): 30.35 inches Hg (1028.0 mb)
Winds: from the NE (40 degrees) at 6 MPH (5 knots; 2.6 m/s)
Visibility: 6 or more miles (10+ km)
Ceiling: ceiling and visibility are OK
Clouds: unknown
Weather: no significant weather observed at this time

METAR text: FBSK 151200Z VRB02KT CAVOK 19/03 Q1028 NOSIG
Conditions at: FBSK (SIR SERETSE KHAM, BW) observed 1200 UTC 15 June 2019
Temperature: 19.0°C (66°F)
Dewpoint: 3.0°C (37°F) [RH = 34%]
Pressure (altimeter): 30.35 inches Hg (1028.0 mb)
Winds: variable direction winds at 2 MPH (2 knots; 1.0 m/s)
Visibility: 6 or more miles (10+ km)
Ceiling: ceiling and visibility are OK
Clouds: unknown
Weather: no significant weather observed at this time

METAR text: FBSK 151100Z VRB04KT CAVOK 19/04 Q1030 NOSIG
Conditions at: FBSK (SIR SERETSE KHAM, BW) observed 1100 UTC 15 June 2019
Temperature: 19.0°C (66°F)
Dewpoint: 4.0°C (39°F) [RH = 37%]
Pressure (altimeter): 30.41 inches Hg (1030.0 mb)
Winds: variable direction winds at 5 MPH (4 knots; 2.1 m/s)
Visibility: 6 or more miles (10+ km)
Ceiling: ceiling and visibility are OK
Clouds: unknown
Weather: no significant weather observed at this time

METAR text: FBSK 151000Z /////KT CAVOK 19/09 Q1029
Conditions at: FBSK (SIR SERETSE KHAM, BW) observed 1000 UTC 15 June 2019
Temperature: 19.0°C (66°F)
Dewpoint: 9.0°C (48°F) [RH = 52%]
Pressure (altimeter): 30.38 inches Hg (1029.0 mb)
Winds: missing
Visibility: 6 or more miles (10+ km)
Ceiling: ceiling and visibility are OK
Clouds: unknown
Weather: no significant weather observed at this time

METAR text: FBSK 150900Z VRB03KT CAVOK 17/04 Q1032 NOSIG
Conditions at: FBSK (SIR SERETSE KHAM, BW) observed 0900 UTC 15 June 2019
Temperature: 17.0°C (63°F)
Dewpoint: 4.0°C (39°F) [RH = 42%]
Pressure (altimeter): 30.47 inches Hg (1032.0 mb)
Winds: variable direction winds at 3 MPH (3 knots; 1.5 m/s)
Visibility: 6 or more miles (10+ km)
Ceiling: ceiling and visibility are OK
Clouds: unknown
Weather: no significant weather observed at this time

METAR text: FBSK 150800Z VRB01KT CAVOK 15/05 Q1032 NOSIG
Conditions at: FBSK (SIR SERETSE KHAM, BW) observed 0800 UTC 15 June 2019
Temperature: 15.0°C (59°F)
Dewpoint: 5.0°C (41°F) [RH = 51%]
Pressure (altimeter): 30.47 inches Hg (1032.0 mb)
Winds: variable direction winds at 1 MPH (1 knots; 0.5 m/s)
Visibility: 6 or more miles (10+ km)
Ceiling: ceiling and visibility are OK
Clouds: unknown
Weather: no significant weather observed at this time

METAR text: FBSK 150700Z /////KT CAVOK 14/08 Q1031
Conditions at: FBSK (SIR SERETSE KHAM, BW) observed 0700 UTC 15 June 2019
Temperature: 14.0°C (57°F)
Dewpoint: 8.0°C (46°F) [RH = 67%]
Pressure (altimeter): 30.44 inches Hg (1031.0 mb)
Winds: missing
Visibility: 6 or more miles (10+ km)
Ceiling: ceiling and visibility are OK
Clouds: unknown
Weather: no significant weather observed at this time

METAR text: FBSK 150600Z VRB02KT CAVOK 05/02 Q1031 NOSIG
Conditions at: FBSK (SIR SERETSE KHAM, BW) observed 0600 UTC 15 June 2019
Temperature: 5.0°C (41°F)
Dewpoint: 2.0°C (36°F) [RH = 81%]
Pressure (altimeter): 30.44 inches Hg (1031.0 mb)
Winds: variable direction winds at 2 MPH (2 knots; 1.0 m/s)
Visibility: 6 or more miles (10+ km)
Ceiling: ceiling and visibility are OK
Clouds: unknown
Weather: no significant weather observed at this time

Forecast for: FBSK (SIR SERETSE KHAM, BW)
Text: TAF FBSK 161500Z 1618/1724 25005KT CAVOK
Forecast period: 1800 UTC 16 June 2019 to 0000 UTC 18 June 2019
Forecast type: FROM: standard forecast or significant change
Winds: from the WSW (250 degrees) at 6 MPH (5 knots; 2.6 m/s)
Visibility: 6 or more miles 10+ km)
Ceiling: unknown
Clouds: missing
Weather: NSW  (no significant weather)